sensor_id;sensor_type;location;lat;lon;timestamp;P1;durP1;ratioP1;P2;durP2;ratioP2
33453;SDS011;39400;49.744;7.012;2023-03-23T00:00:47;2.08;;;0.90;;
33453;SDS011;39400;49.744;7.012;2023-03-23T00:03:13;1.60;;;1.30;;
33453;SDS011;39400;49.744;7.012;2023-03-23T00:05:39;2.22;;;1.00;;
33453;SDS011;39400;49.744;7.012;2023-03-23T00:08:04;3.13;;;1.30;;
33453;SDS011;39400;49.744;7.012;2023-03-23T00:10:30;2.40;;;1.02;;
33453;SDS011;39400;49.744;7.012;2023-03-23T00:12:55;0.95;;;0.70;;
33453;SDS011;39400;49.744;7.012;2023-03-23T00:15:20;3.60;;;0.90;;
33453;SDS011;39400;49.744;7.012;2023-03-23T00:17:46;1.33;;;0.82;;
33453;SDS011;39400;49.744;7.012;2023-03-23T00:20:11;4.05;;;1.30;;
33453;SDS011;39400;49.744;7.012;2023-03-23T00:22:37;3.00;;;1.17;;
33453;SDS011;39400;49.744;7.012;2023-03-23T00:25:06;4.75;;;1.27;;
33453;SDS011;39400;49.744;7.012;2023-03-23T00:27:32;1.75;;;0.90;;
33453;SDS011;39400;49.744;7.012;2023-03-23T00:29:57;2.97;;;1.10;;
33453;SDS011;39400;49.744;7.012;2023-03-23T00:32:23;2.53;;;1.45;;
33453;SDS011;39400;49.744;7.012;2023-03-23T00:34:50;3.83;;;1.40;;
33453;SDS011;39400;49.744;7.012;2023-03-23T00:37:15;3.55;;;1.33;;
33453;SDS011;39400;49.744;7.012;2023-03-23T00:39:40;1.92;;;0.90;;
33453;SDS011;39400;49.744;7.012;2023-03-23T00:42:06;2.80;;;1.13;;
33453;SDS011;39400;49.744;7.012;2023-03-23T00:44:32;1.70;;;0.90;;
33453;SDS011;39400;49.744;7.012;2023-03-23T00:46:58;2.75;;;1.25;;
33453;SDS011;39400;49.744;7.012;2023-03-23T00:49:24;3.90;;;0.98;;
33453;SDS011;39400;49.744;7.012;2023-03-23T00:51:51;1.70;;;0.90;;
33453;SDS011;39400;49.744;7.012;2023-03-23T00:54:18;3.13;;;1.35;;
33453;SDS011;39400;49.744;7.012;2023-03-23T00:56:44;2.30;;;1.08;;
33453;SDS011;39400;49.744;7.012;2023-03-23T00:59:09;2.58;;;0.98;;
33453;SDS011;39400;49.744;7.012;2023-03-23T01:01:35;4.72;;;1.10;;
33453;SDS011;39400;49.744;7.012;2023-03-23T01:04:02;1.95;;;0.85;;
33453;SDS011;39400;49.744;7.012;2023-03-23T01:06:28;1.73;;;1.00;;
33453;SDS011;39400;49.744;7.012;2023-03-23T01:08:53;4.13;;;1.25;;
33453;SDS011;39400;49.744;7.012;2023-03-23T01:11:19;2.83;;;1.00;;
33453;SDS011;39400;49.744;7.012;2023-03-23T01:13:45;1.17;;;0.82;;
33453;SDS011;39400;49.744;7.012;2023-03-23T01:16:11;3.20;;;1.02;;
33453;SDS011;39400;49.744;7.012;2023-03-23T01:18:37;4.93;;;2.15;;
33453;SDS011;39400;49.744;7.012;2023-03-23T01:21:04;1.42;;;0.80;;
33453;SDS011;39400;49.744;7.012;2023-03-23T01:23:31;4.57;;;1.10;;
33453;SDS011;39400;49.744;7.012;2023-03-23T01:25:57;2.88;;;1.23;;
33453;SDS011;39400;49.744;7.012;2023-03-23T01:28:28;2.38;;;1.67;;
33453;SDS011;39400;49.744;7.012;2023-03-23T01:30:53;1.75;;;1.08;;
33453;SDS011;39400;49.744;7.012;2023-03-23T01:33:24;3.22;;;1.10;;
33453;SDS011;39400;49.744;7.012;2023-03-23T01:35:50;1.80;;;0.98;;
33453;SDS011;39400;49.744;7.012;2023-03-23T01:38:16;2.33;;;1.10;;
33453;SDS011;39400;49.744;7.012;2023-03-23T01:40:42;2.13;;;1.30;;
33453;SDS011;39400;49.744;7.012;2023-03-23T01:43:12;3.40;;;1.02;;
33453;SDS011;39400;49.744;7.012;2023-03-23T01:45:41;2.33;;;1.13;;
33453;SDS011;39400;49.744;7.012;2023-03-23T01:48:12;1.67;;;1.00;;
33453;SDS011;39400;49.744;7.012;2023-03-23T01:50:42;2.55;;;1.40;;
33453;SDS011;39400;49.744;7.012;2023-03-23T01:53:14;3.20;;;1.55;;
33453;SDS011;39400;49.744;7.012;2023-03-23T01:55:40;1.55;;;1.20;;
33453;SDS011;39400;49.744;7.012;2023-03-23T01:58:08;4.83;;;1.60;;
33453;SDS011;39400;49.744;7.012;2023-03-23T02:00:36;3.85;;;1.90;;
33453;SDS011;39400;49.744;7.012;2023-03-23T02:03:03;3.28;;;1.58;;
33453;SDS011;39400;49.744;7.012;2023-03-23T02:05:33;3.90;;;1.77;;
33453;SDS011;39400;49.744;7.012;2023-03-23T02:08:09;3.67;;;1.60;;
33453;SDS011;39400;49.744;7.012;2023-03-23T02:10:37;2.25;;;1.25;;
33453;SDS011;39400;49.744;7.012;2023-03-23T02:13:03;2.53;;;1.52;;
33453;SDS011;39400;49.744;7.012;2023-03-23T02:15:38;4.22;;;1.73;;
33453;SDS011;39400;49.744;7.012;2023-03-23T02:18:16;4.28;;;1.42;;
33453;SDS011;39400;49.744;7.012;2023-03-23T02:34:26;3.20;;;1.77;;
33453;SDS011;39400;49.744;7.012;2023-03-23T02:37:02;1.95;;;1.38;;
33453;SDS011;39400;49.744;7.012;2023-03-23T02:39:35;3.67;;;2.00;;
33453;SDS011;39400;49.744;7.012;2023-03-23T02:42:16;2.90;;;1.25;;
33453;SDS011;39400;49.744;7.012;2023-03-23T02:44:45;3.60;;;1.55;;
33453;SDS011;39400;49.744;7.012;2023-03-23T02:47:17;5.68;;;2.15;;
33453;SDS011;39400;49.744;7.012;2023-03-23T02:49:48;4.25;;;1.80;;
33453;SDS011;39400;49.744;7.012;2023-03-23T02:52:21;6.13;;;1.70;;
33453;SDS011;39400;49.744;7.012;2023-03-23T02:54:51;3.30;;;1.80;;
33453;SDS011;39400;49.744;7.012;2023-03-23T02:57:19;2.28;;;1.55;;
33453;SDS011;39400;49.744;7.012;2023-03-23T02:59:45;3.03;;;1.70;;
33453;SDS011;39400;49.744;7.012;2023-03-23T03:02:12;3.10;;;2.17;;
33453;SDS011;39400;49.744;7.012;2023-03-23T03:04:44;4.78;;;2.13;;
33453;SDS011;39400;49.744;7.012;2023-03-23T03:07:23;2.70;;;1.88;;
33453;SDS011;39400;49.744;7.012;2023-03-23T03:13:00;3.45;;;1.80;;
33453;SDS011;39400;49.744;7.012;2023-03-23T03:18:26;4.93;;;1.70;;
33453;SDS011;39400;49.744;7.012;2023-03-23T03:20:55;3.47;;;2.10;;
33453;SDS011;39400;49.744;7.012;2023-03-23T03:23:27;6.07;;;2.03;;
33453;SDS011;39400;49.744;7.012;2023-03-23T03:25:58;3.58;;;1.70;;
33453;SDS011;39400;49.744;7.012;2023-03-23T03:28:38;5.47;;;1.85;;
33453;SDS011;39400;49.744;7.012;2023-03-23T03:31:04;3.22;;;1.67;;
33453;SDS011;39400;49.744;7.012;2023-03-23T03:33:31;2.65;;;1.65;;
33453;SDS011;39400;49.744;7.012;2023-03-23T03:35:59;4.03;;;2.25;;
33453;SDS011;39400;49.744;7.012;2023-03-23T03:40:53;3.25;;;1.77;;
33453;SDS011;39400;49.744;7.012;2023-03-23T03:43:20;3.35;;;1.70;;
33453;SDS011;39400;49.744;7.012;2023-03-23T03:45:45;2.65;;;1.77;;
33453;SDS011;39400;49.744;7.012;2023-03-23T03:48:11;4.05;;;2.13;;
33453;SDS011;39400;49.744;7.012;2023-03-23T03:50:37;5.40;;;2.17;;
33453;SDS011;39400;49.744;7.012;2023-03-23T03:53:02;5.53;;;2.05;;
33453;SDS011;39400;49.744;7.012;2023-03-23T03:55:29;4.32;;;2.53;;
33453;SDS011;39400;49.744;7.012;2023-03-23T03:57:54;6.18;;;2.42;;
33453;SDS011;39400;49.744;7.012;2023-03-23T04:00:38;3.75;;;2.65;;
33453;SDS011;39400;49.744;7.012;2023-03-23T04:03:03;4.68;;;2.33;;
33453;SDS011;39400;49.744;7.012;2023-03-23T04:05:47;8.43;;;2.35;;
33453;SDS011;39400;49.744;7.012;2023-03-23T04:08:13;3.78;;;2.28;;
33453;SDS011;39400;49.744;7.012;2023-03-23T04:10:38;5.10;;;2.42;;
33453;SDS011;39400;49.744;7.012;2023-03-23T04:13:04;5.85;;;2.40;;
33453;SDS011;39400;49.744;7.012;2023-03-23T04:15:48;4.47;;;1.95;;
33453;SDS011;39400;49.744;7.012;2023-03-23T04:18:14;3.47;;;2.17;;
33453;SDS011;39400;49.744;7.012;2023-03-23T04:20:43;7.80;;;2.47;;
33453;SDS011;39400;49.744;7.012;2023-03-23T04:23:10;4.05;;;2.10;;
33453;SDS011;39400;49.744;7.012;2023-03-23T04:25:35;5.18;;;2.60;;
33453;SDS011;39400;49.744;7.012;2023-03-23T04:28:04;3.72;;;2.28;;
33453;SDS011;39400;49.744;7.012;2023-03-23T04:30:36;2.88;;;2.03;;
33453;SDS011;39400;49.744;7.012;2023-03-23T04:33:09;3.67;;;2.35;;
33453;SDS011;39400;49.744;7.012;2023-03-23T04:35:36;2.58;;;1.88;;
33453;SDS011;39400;49.744;7.012;2023-03-23T04:38:08;5.70;;;2.15;;
33453;SDS011;39400;49.744;7.012;2023-03-23T04:40:37;3.22;;;1.90;;
33453;SDS011;39400;49.744;7.012;2023-03-23T04:43:21;3.70;;;1.70;;
33453;SDS011;39400;49.744;7.012;2023-03-23T04:46:02;3.83;;;2.20;;
33453;SDS011;39400;49.744;7.012;2023-03-23T04:48:30;6.18;;;2.47;;
33453;SDS011;39400;49.744;7.012;2023-03-23T04:51:04;5.05;;;2.33;;
33453;SDS011;39400;49.744;7.012;2023-03-23T04:53:31;3.40;;;2.10;;
33453;SDS011;39400;49.744;7.012;2023-03-23T04:55:57;3.67;;;2.25;;
33453;SDS011;39400;49.744;7.012;2023-03-23T04:58:23;2.92;;;1.83;;
33453;SDS011;39400;49.744;7.012;2023-03-23T05:01:15;7.03;;;2.47;;
33453;SDS011;39400;49.744;7.012;2023-03-23T05:03:51;3.78;;;2.22;;
33453;SDS011;39400;49.744;7.012;2023-03-23T05:06:16;3.80;;;1.70;;
33453;SDS011;39400;49.744;7.012;2023-03-23T05:08:42;3.03;;;1.80;;
33453;SDS011;39400;49.744;7.012;2023-03-23T05:11:07;3.35;;;1.65;;
33453;SDS011;39400;49.744;7.012;2023-03-23T05:13:36;5.18;;;1.75;;
33453;SDS011;39400;49.744;7.012;2023-03-23T05:16:03;2.13;;;1.50;;
33453;SDS011;39400;49.744;7.012;2023-03-23T05:18:29;4.00;;;1.50;;
33453;SDS011;39400;49.744;7.012;2023-03-23T05:20:55;2.40;;;1.30;;
33453;SDS011;39400;49.744;7.012;2023-03-23T05:23:25;2.95;;;1.73;;
33453;SDS011;39400;49.744;7.012;2023-03-23T05:25:56;3.22;;;1.67;;
33453;SDS011;39400;49.744;7.012;2023-03-23T05:28:24;2.47;;;1.58;;
33453;SDS011;39400;49.744;7.012;2023-03-23T05:31:12;5.22;;;2.03;;
33453;SDS011;39400;49.744;7.012;2023-03-23T05:33:38;3.47;;;1.85;;
33453;SDS011;39400;49.744;7.012;2023-03-23T05:36:14;3.05;;;1.52;;
33453;SDS011;39400;49.744;7.012;2023-03-23T05:39:04;5.10;;;1.70;;
33453;SDS011;39400;49.744;7.012;2023-03-23T05:42:05;3.97;;;1.83;;
33453;SDS011;39400;49.744;7.012;2023-03-23T05:44:42;3.38;;;1.63;;
33453;SDS011;39400;49.744;7.012;2023-03-23T05:47:09;2.92;;;1.80;;
33453;SDS011;39400;49.744;7.012;2023-03-23T05:49:37;3.88;;;1.65;;
33453;SDS011;39400;49.744;7.012;2023-03-23T05:52:05;4.68;;;2.10;;
33453;SDS011;39400;49.744;7.012;2023-03-23T05:54:31;5.20;;;2.10;;
33453;SDS011;39400;49.744;7.012;2023-03-23T05:56:56;3.47;;;2.15;;
33453;SDS011;39400;49.744;7.012;2023-03-23T05:59:36;4.47;;;2.00;;
33453;SDS011;39400;49.744;7.012;2023-03-23T06:02:06;3.85;;;2.42;;
33453;SDS011;39400;49.744;7.012;2023-03-23T06:04:32;3.42;;;2.00;;
33453;SDS011;39400;49.744;7.012;2023-03-23T06:07:11;6.22;;;2.83;;
33453;SDS011;39400;49.744;7.012;2023-03-23T06:09:39;3.85;;;2.13;;
33453;SDS011;39400;49.744;7.012;2023-03-23T06:12:23;4.93;;;2.20;;
33453;SDS011;39400;49.744;7.012;2023-03-23T06:15:01;3.30;;;2.40;;
33453;SDS011;39400;49.744;7.012;2023-03-23T06:17:46;4.68;;;2.55;;
33453;SDS011;39400;49.744;7.012;2023-03-23T06:20:12;4.05;;;2.33;;
33453;SDS011;39400;49.744;7.012;2023-03-23T06:22:39;3.17;;;2.05;;
33453;SDS011;39400;49.744;7.012;2023-03-23T06:25:09;3.72;;;1.77;;
33453;SDS011;39400;49.744;7.012;2023-03-23T06:27:39;3.80;;;2.30;;
33453;SDS011;39400;49.744;7.012;2023-03-23T06:30:05;4.35;;;1.88;;
33453;SDS011;39400;49.744;7.012;2023-03-23T06:32:31;6.28;;;2.42;;
33453;SDS011;39400;49.744;7.012;2023-03-23T06:34:59;3.63;;;2.05;;
33453;SDS011;39400;49.744;7.012;2023-03-23T06:37:43;3.30;;;1.60;;
33453;SDS011;39400;49.744;7.012;2023-03-23T06:40:15;5.30;;;2.17;;
33453;SDS011;39400;49.744;7.012;2023-03-23T06:42:44;4.13;;;1.77;;
33453;SDS011;39400;49.744;7.012;2023-03-23T06:45:28;2.60;;;1.65;;
33453;SDS011;39400;49.744;7.012;2023-03-23T06:48:31;2.20;;;1.70;;
33453;SDS011;39400;49.744;7.012;2023-03-23T06:50:59;4.28;;;2.30;;
33453;SDS011;39400;49.744;7.012;2023-03-23T06:53:26;3.33;;;1.25;;
33453;SDS011;39400;49.744;7.012;2023-03-23T06:55:54;2.53;;;1.30;;
33453;SDS011;39400;49.744;7.012;2023-03-23T06:58:20;2.65;;;1.70;;
33453;SDS011;39400;49.744;7.012;2023-03-23T07:00:46;3.70;;;1.92;;
33453;SDS011;39400;49.744;7.012;2023-03-23T07:03:14;3.35;;;1.58;;
33453;SDS011;39400;49.744;7.012;2023-03-23T07:05:39;1.90;;;1.35;;
33453;SDS011;39400;49.744;7.012;2023-03-23T07:08:07;1.63;;;1.10;;
33453;SDS011;39400;49.744;7.012;2023-03-23T07:10:40;4.65;;;1.40;;
33453;SDS011;39400;49.744;7.012;2023-03-23T07:13:06;3.22;;;1.40;;
33453;SDS011;39400;49.744;7.012;2023-03-23T07:15:42;2.83;;;1.48;;
33453;SDS011;39400;49.744;7.012;2023-03-23T07:18:07;3.47;;;1.30;;
33453;SDS011;39400;49.744;7.012;2023-03-23T07:20:39;3.30;;;1.63;;
33453;SDS011;39400;49.744;7.012;2023-03-23T07:23:04;2.28;;;1.45;;
33453;SDS011;39400;49.744;7.012;2023-03-23T07:25:43;3.08;;;1.17;;
33453;SDS011;39400;49.744;7.012;2023-03-23T07:30:38;3.08;;;1.50;;
33453;SDS011;39400;49.744;7.012;2023-03-23T07:33:05;1.85;;;1.52;;
33453;SDS011;39400;49.744;7.012;2023-03-23T07:35:33;2.03;;;1.20;;
33453;SDS011;39400;49.744;7.012;2023-03-23T07:38:03;2.67;;;1.30;;
33453;SDS011;39400;49.744;7.012;2023-03-23T07:40:30;2.92;;;1.17;;
33453;SDS011;39400;49.744;7.012;2023-03-23T07:43:00;4.72;;;2.20;;
33453;SDS011;39400;49.744;7.012;2023-03-23T07:45:37;3.42;;;1.35;;
33453;SDS011;39400;49.744;7.012;2023-03-23T07:48:03;1.20;;;0.77;;
33453;SDS011;39400;49.744;7.012;2023-03-23T07:50:29;1.88;;;1.00;;
33453;SDS011;39400;49.744;7.012;2023-03-23T07:52:55;3.65;;;1.85;;
33453;SDS011;39400;49.744;7.012;2023-03-23T07:55:23;3.38;;;1.20;;
33453;SDS011;39400;49.744;7.012;2023-03-23T07:58:25;3.35;;;1.20;;
33453;SDS011;39400;49.744;7.012;2023-03-23T08:00:53;4.13;;;1.00;;
33453;SDS011;39400;49.744;7.012;2023-03-23T08:03:20;2.95;;;1.13;;
33453;SDS011;39400;49.744;7.012;2023-03-23T08:06:04;4.82;;;1.83;;
33453;SDS011;39400;49.744;7.012;2023-03-23T08:08:50;2.80;;;1.30;;
33453;SDS011;39400;49.744;7.012;2023-03-23T08:11:39;1.88;;;1.15;;
33453;SDS011;39400;49.744;7.012;2023-03-23T08:14:23;3.08;;;1.25;;
33453;SDS011;39400;49.744;7.012;2023-03-23T08:16:59;1.70;;;1.00;;
33453;SDS011;39400;49.744;7.012;2023-03-23T08:19:35;2.58;;;0.90;;
33453;SDS011;39400;49.744;7.012;2023-03-23T08:22:18;2.08;;;1.38;;
33453;SDS011;39400;49.744;7.012;2023-03-23T08:25:16;2.08;;;1.45;;
33453;SDS011;39400;49.744;7.012;2023-03-23T08:27:58;1.10;;;0.95;;
33453;SDS011;39400;49.744;7.012;2023-03-23T08:30:47;2.45;;;1.00;;
33453;SDS011;39400;49.744;7.012;2023-03-23T08:33:21;3.53;;;1.17;;
33453;SDS011;39400;49.744;7.012;2023-03-23T08:35:59;1.65;;;1.00;;
33453;SDS011;39400;49.744;7.012;2023-03-23T08:38:51;2.47;;;1.00;;
33453;SDS011;39400;49.744;7.012;2023-03-23T08:41:50;2.40;;;1.10;;
33453;SDS011;39400;49.744;7.012;2023-03-23T08:44:36;3.63;;;1.17;;
33453;SDS011;39400;49.744;7.012;2023-03-23T08:47:21;1.55;;;0.88;;
33453;SDS011;39400;49.744;7.012;2023-03-23T08:50:11;1.65;;;1.10;;
33453;SDS011;39400;49.744;7.012;2023-03-23T08:52:57;3.30;;;1.27;;
33453;SDS011;39400;49.744;7.012;2023-03-23T08:55:33;1.52;;;0.98;;
33453;SDS011;39400;49.744;7.012;2023-03-23T08:58:19;1.63;;;1.13;;
33453;SDS011;39400;49.744;7.012;2023-03-23T09:00:50;1.90;;;0.93;;
33453;SDS011;39400;49.744;7.012;2023-03-23T09:03:38;2.22;;;1.00;;
33453;SDS011;39400;49.744;7.012;2023-03-23T09:06:17;1.15;;;0.90;;
33453;SDS011;39400;49.744;7.012;2023-03-23T09:08:44;2.38;;;0.90;;
33453;SDS011;39400;49.744;7.012;2023-03-23T09:11:09;2.83;;;1.00;;
33453;SDS011;39400;49.744;7.012;2023-03-23T09:13:35;1.85;;;1.10;;
33453;SDS011;39400;49.744;7.012;2023-03-23T09:16:02;2.67;;;1.10;;
33453;SDS011;39400;49.744;7.012;2023-03-23T09:18:28;2.08;;;1.05;;
33453;SDS011;39400;49.744;7.012;2023-03-23T09:20:54;1.92;;;1.00;;
33453;SDS011;39400;49.744;7.012;2023-03-23T09:23:19;1.38;;;0.90;;
33453;SDS011;39400;49.744;7.012;2023-03-23T09:25:45;1.48;;;1.00;;
33453;SDS011;39400;49.744;7.012;2023-03-23T09:28:11;1.83;;;0.80;;
33453;SDS011;39400;49.744;7.012;2023-03-23T09:30:37;3.00;;;0.90;;
33453;SDS011;39400;49.744;7.012;2023-03-23T09:33:04;1.42;;;0.80;;
33453;SDS011;39400;49.744;7.012;2023-03-23T09:35:30;2.63;;;1.27;;
33453;SDS011;39400;49.744;7.012;2023-03-23T09:37:57;1.48;;;0.75;;
33453;SDS011;39400;49.744;7.012;2023-03-23T09:40:24;1.70;;;1.15;;
33453;SDS011;39400;49.744;7.012;2023-03-23T09:48:37;1.38;;;0.63;;
33453;SDS011;39400;49.744;7.012;2023-03-23T09:51:22;1.00;;;0.70;;
33453;SDS011;39400;49.744;7.012;2023-03-23T09:53:55;2.83;;;1.00;;
33453;SDS011;39400;49.744;7.012;2023-03-23T09:56:25;4.88;;;1.20;;
33453;SDS011;39400;49.744;7.012;2023-03-23T10:01:39;1.92;;;0.98;;
33453;SDS011;39400;49.744;7.012;2023-03-23T10:04:32;1.20;;;0.80;;
33453;SDS011;39400;49.744;7.012;2023-03-23T10:06:59;1.40;;;0.80;;
33453;SDS011;39400;49.744;7.012;2023-03-23T10:09:35;1.27;;;0.90;;
33453;SDS011;39400;49.744;7.012;2023-03-23T10:12:07;1.90;;;0.93;;
33453;SDS011;39400;49.744;7.012;2023-03-23T10:22:39;1.40;;;0.85;;
33453;SDS011;39400;49.744;7.012;2023-03-23T10:30:17;2.47;;;0.93;;
33453;SDS011;39400;49.744;7.012;2023-03-23T10:32:51;1.58;;;0.70;;
33453;SDS011;39400;49.744;7.012;2023-03-23T10:35:23;1.38;;;0.57;;
33453;SDS011;39400;49.744;7.012;2023-03-23T10:38:14;0.60;;;0.60;;
33453;SDS011;39400;49.744;7.012;2023-03-23T10:40:47;1.35;;;0.70;;
33453;SDS011;39400;49.744;7.012;2023-03-23T10:43:15;0.63;;;0.63;;
33453;SDS011;39400;49.744;7.012;2023-03-23T10:45:41;1.98;;;0.73;;
33453;SDS011;39400;49.744;7.012;2023-03-23T10:48:17;1.20;;;0.50;;
33453;SDS011;39400;49.744;7.012;2023-03-23T10:50:48;1.27;;;0.70;;
33453;SDS011;39400;49.744;7.012;2023-03-23T10:53:21;1.17;;;0.63;;
33453;SDS011;39400;49.744;7.012;2023-03-23T10:55:50;0.90;;;0.60;;
33453;SDS011;39400;49.744;7.012;2023-03-23T10:58:23;0.98;;;0.57;;
33453;SDS011;39400;49.744;7.012;2023-03-23T11:00:49;2.47;;;0.75;;
33453;SDS011;39400;49.744;7.012;2023-03-23T11:05:43;4.55;;;1.83;;
33453;SDS011;39400;49.744;7.012;2023-03-23T11:08:23;3.22;;;1.58;;
33453;SDS011;39400;49.744;7.012;2023-03-23T11:10:54;2.42;;;1.02;;
33453;SDS011;39400;49.744;7.012;2023-03-23T11:13:23;5.15;;;1.40;;
33453;SDS011;39400;49.744;7.012;2023-03-23T11:15:55;2.05;;;1.13;;
33453;SDS011;39400;49.744;7.012;2023-03-23T11:18:22;3.22;;;1.83;;
33453;SDS011;39400;49.744;7.012;2023-03-23T11:20:52;1.77;;;0.80;;
33453;SDS011;39400;49.744;7.012;2023-03-23T11:23:21;1.67;;;0.93;;
33453;SDS011;39400;49.744;7.012;2023-03-23T11:26:07;2.08;;;1.02;;
33453;SDS011;39400;49.744;7.012;2023-03-23T11:28:42;1.88;;;1.02;;
33453;SDS011;39400;49.744;7.012;2023-03-23T11:31:12;3.05;;;1.70;;
33453;SDS011;39400;49.744;7.012;2023-03-23T11:33:55;2.75;;;1.05;;
33453;SDS011;39400;49.744;7.012;2023-03-23T11:36:31;1.33;;;0.82;;
33453;SDS011;39400;49.744;7.012;2023-03-23T11:39:00;2.05;;;1.00;;
33453;SDS011;39400;49.744;7.012;2023-03-23T11:41:31;3.28;;;1.17;;
33453;SDS011;39400;49.744;7.012;2023-03-23T11:44:01;6.40;;;1.60;;
33453;SDS011;39400;49.744;7.012;2023-03-23T11:46:45;4.03;;;1.02;;
33453;SDS011;39400;49.744;7.012;2023-03-23T11:49:25;3.47;;;1.42;;
33453;SDS011;39400;49.744;7.012;2023-03-23T11:52:02;4.57;;;1.30;;
33453;SDS011;39400;49.744;7.012;2023-03-23T11:54:37;2.47;;;1.30;;
33453;SDS011;39400;49.744;7.012;2023-03-23T11:57:09;2.25;;;1.27;;
33453;SDS011;39400;49.744;7.012;2023-03-23T11:59:35;5.20;;;1.73;;
33453;SDS011;39400;49.744;7.012;2023-03-23T12:07:58;2.80;;;1.05;;
33453;SDS011;39400;49.744;7.012;2023-03-23T12:10:53;1.55;;;0.80;;
33453;SDS011;39400;49.744;7.012;2023-03-23T12:13:29;1.40;;;1.10;;
33453;SDS011;39400;49.744;7.012;2023-03-23T12:16:18;3.83;;;1.05;;
33453;SDS011;39400;49.744;7.012;2023-03-23T12:21:34;3.25;;;1.45;;
33453;SDS011;39400;49.744;7.012;2023-03-23T12:26:46;3.53;;;1.10;;
33453;SDS011;39400;49.744;7.012;2023-03-23T12:32:17;3.30;;;1.15;;
33453;SDS011;39400;49.744;7.012;2023-03-23T12:34:52;1.15;;;0.75;;
33453;SDS011;39400;49.744;7.012;2023-03-23T12:43:11;4.13;;;1.17;;
33453;SDS011;39400;49.744;7.012;2023-03-23T12:51:20;2.90;;;1.25;;
33453;SDS011;39400;49.744;7.012;2023-03-23T12:54:11;4.53;;;1.50;;
33453;SDS011;39400;49.744;7.012;2023-03-23T12:59:52;2.90;;;1.30;;
33453;SDS011;39400;49.744;7.012;2023-03-23T13:02:26;3.03;;;1.60;;
33453;SDS011;39400;49.744;7.012;2023-03-23T13:07:49;2.50;;;1.10;;
33453;SDS011;39400;49.744;7.012;2023-03-23T13:10:43;6.65;;;2.60;;
33453;SDS011;39400;49.744;7.012;2023-03-23T13:13:13;6.43;;;1.50;;
33453;SDS011;39400;49.744;7.012;2023-03-23T13:23:44;5.68;;;1.50;;
33453;SDS011;39400;49.744;7.012;2023-03-23T13:26:14;4.57;;;1.27;;
33453;SDS011;39400;49.744;7.012;2023-03-23T13:31:23;5.10;;;1.80;;
33453;SDS011;39400;49.744;7.012;2023-03-23T13:33:57;4.40;;;1.50;;
33453;SDS011;39400;49.744;7.012;2023-03-23T13:36:29;4.88;;;1.55;;
33453;SDS011;39400;49.744;7.012;2023-03-23T13:38:57;4.38;;;1.23;;
33453;SDS011;39400;49.744;7.012;2023-03-23T13:41:24;1.88;;;1.02;;
33453;SDS011;39400;49.744;7.012;2023-03-23T13:43:50;3.97;;;1.50;;
33453;SDS011;39400;49.744;7.012;2023-03-23T13:49:04;3.45;;;1.35;;
33453;SDS011;39400;49.744;7.012;2023-03-23T14:02:31;4.18;;;1.55;;
33453;SDS011;39400;49.744;7.012;2023-03-23T14:05:07;2.22;;;1.20;;
33453;SDS011;39400;49.744;7.012;2023-03-23T14:07:52;4.27;;;1.33;;
33453;SDS011;39400;49.744;7.012;2023-03-23T14:10:19;3.53;;;1.48;;
33453;SDS011;39400;49.744;7.012;2023-03-23T14:12:45;4.85;;;1.95;;
33453;SDS011;39400;49.744;7.012;2023-03-23T14:15:12;3.25;;;1.35;;
33453;SDS011;39400;49.744;7.012;2023-03-23T14:17:42;2.17;;;1.30;;
33453;SDS011;39400;49.744;7.012;2023-03-23T14:20:24;2.72;;;1.33;;
33453;SDS011;39400;49.744;7.012;2023-03-23T14:22:55;2.75;;;1.27;;
33453;SDS011;39400;49.744;7.012;2023-03-23T14:25:21;3.10;;;1.00;;
33453;SDS011;39400;49.744;7.012;2023-03-23T14:27:51;2.42;;;1.23;;
33453;SDS011;39400;49.744;7.012;2023-03-23T14:30:18;2.83;;;1.10;;
33453;SDS011;39400;49.744;7.012;2023-03-23T14:32:46;44.17;;;2.08;;
33453;SDS011;39400;49.744;7.012;2023-03-23T14:35:33;2.97;;;1.25;;
33453;SDS011;39400;49.744;7.012;2023-03-23T14:37:59;3.17;;;1.42;;
33453;SDS011;39400;49.744;7.012;2023-03-23T14:40:28;3.60;;;1.10;;
33453;SDS011;39400;49.744;7.012;2023-03-23T14:42:55;2.30;;;1.10;;
33453;SDS011;39400;49.744;7.012;2023-03-23T14:45:22;3.15;;;1.30;;
33453;SDS011;39400;49.744;7.012;2023-03-23T14:47:56;2.50;;;1.30;;
33453;SDS011;39400;49.744;7.012;2023-03-23T14:50:28;3.72;;;1.30;;
33453;SDS011;39400;49.744;7.012;2023-03-23T14:53:37;5.20;;;1.55;;
33453;SDS011;39400;49.744;7.012;2023-03-23T14:55:48;3.67;;;1.38;;
33453;SDS011;39400;49.744;7.012;2023-03-23T14:58:16;4.32;;;1.10;;
33453;SDS011;39400;49.744;7.012;2023-03-23T15:01:03;4.10;;;1.10;;
33453;SDS011;39400;49.744;7.012;2023-03-23T15:03:33;4.32;;;1.55;;
33453;SDS011;39400;49.744;7.012;2023-03-23T15:06:03;5.53;;;1.17;;
33453;SDS011;39400;49.744;7.012;2023-03-23T15:08:33;4.90;;;1.73;;
33453;SDS011;39400;49.744;7.012;2023-03-23T15:13:28;1.55;;;0.88;;
33453;SDS011;39400;49.744;7.012;2023-03-23T15:16:00;3.00;;;1.20;;
33453;SDS011;39400;49.744;7.012;2023-03-23T15:18:31;2.92;;;1.45;;
33453;SDS011;39400;49.744;7.012;2023-03-23T15:21:07;3.40;;;1.75;;
33453;SDS011;39400;49.744;7.012;2023-03-23T15:23:34;5.88;;;1.38;;
33453;SDS011;39400;49.744;7.012;2023-03-23T15:26:18;3.55;;;1.38;;
33453;SDS011;39400;49.744;7.012;2023-03-23T15:28:48;4.03;;;1.30;;
33453;SDS011;39400;49.744;7.012;2023-03-23T15:31:13;6.78;;;1.10;;
33453;SDS011;39400;49.744;7.012;2023-03-23T15:34:01;3.65;;;1.08;;
33453;SDS011;39400;49.744;7.012;2023-03-23T15:36:50;4.50;;;1.27;;
33453;SDS011;39400;49.744;7.012;2023-03-23T15:39:40;4.53;;;2.10;;
33453;SDS011;39400;49.744;7.012;2023-03-23T15:42:05;2.47;;;1.42;;
33453;SDS011;39400;49.744;7.012;2023-03-23T15:52:55;4.60;;;1.75;;
33453;SDS011;39400;49.744;7.012;2023-03-23T15:57:52;4.32;;;1.92;;
33453;SDS011;39400;49.744;7.012;2023-03-23T16:00:19;2.08;;;1.15;;
33453;SDS011;39400;49.744;7.012;2023-03-23T16:02:46;4.68;;;1.45;;
33453;SDS011;39400;49.744;7.012;2023-03-23T16:05:15;5.37;;;1.50;;
33453;SDS011;39400;49.744;7.012;2023-03-23T16:07:40;4.70;;;1.80;;
33453;SDS011;39400;49.744;7.012;2023-03-23T16:10:06;9.98;;;2.40;;
33453;SDS011;39400;49.744;7.012;2023-03-23T16:12:38;7.65;;;1.23;;
33453;SDS011;39400;49.744;7.012;2023-03-23T16:15:04;4.70;;;1.77;;
33453;SDS011;39400;49.744;7.012;2023-03-23T16:17:29;7.13;;;1.77;;
33453;SDS011;39400;49.744;7.012;2023-03-23T16:19:55;7.68;;;1.60;;
33453;SDS011;39400;49.744;7.012;2023-03-23T16:22:20;4.78;;;1.13;;
33453;SDS011;39400;49.744;7.012;2023-03-23T16:24:45;6.57;;;1.42;;
33453;SDS011;39400;49.744;7.012;2023-03-23T16:27:10;5.15;;;1.80;;
33453;SDS011;39400;49.744;7.012;2023-03-23T16:29:36;6.55;;;1.83;;
33453;SDS011;39400;49.744;7.012;2023-03-23T16:32:02;2.63;;;1.45;;
33453;SDS011;39400;49.744;7.012;2023-03-23T16:34:27;5.00;;;1.85;;
33453;SDS011;39400;49.744;7.012;2023-03-23T16:36:53;6.90;;;1.40;;
33453;SDS011;39400;49.744;7.012;2023-03-23T16:39:18;5.18;;;1.67;;
33453;SDS011;39400;49.744;7.012;2023-03-23T16:41:43;5.25;;;1.90;;
33453;SDS011;39400;49.744;7.012;2023-03-23T16:44:09;6.63;;;1.65;;
33453;SDS011;39400;49.744;7.012;2023-03-23T16:46:34;6.22;;;1.55;;
33453;SDS011;39400;49.744;7.012;2023-03-23T16:49:00;5.57;;;1.55;;
33453;SDS011;39400;49.744;7.012;2023-03-23T16:51:25;5.50;;;1.52;;
33453;SDS011;39400;49.744;7.012;2023-03-23T16:53:50;4.55;;;1.70;;
33453;SDS011;39400;49.744;7.012;2023-03-23T16:56:15;4.43;;;1.30;;
33453;SDS011;39400;49.744;7.012;2023-03-23T16:58:41;3.50;;;1.38;;
33453;SDS011;39400;49.744;7.012;2023-03-23T17:01:06;7.05;;;1.38;;
33453;SDS011;39400;49.744;7.012;2023-03-23T17:03:32;3.85;;;1.40;;
33453;SDS011;39400;49.744;7.012;2023-03-23T17:05:58;3.92;;;1.40;;
33453;SDS011;39400;49.744;7.012;2023-03-23T17:08:24;5.47;;;1.45;;
33453;SDS011;39400;49.744;7.012;2023-03-23T17:10:49;4.20;;;1.50;;